Time;durP1;ratioP1;P1;durP2;ratioP2;P2;SDS_P1;SDS_P2;PMS_P1;PMS_P2;Temp;Humidity;BMP_temperature;BMP_pressure;BME280_temperature;BME280_humidity;BME280_pressure;Samples;Min_cycle;Max_cycle;Signal;HPM_P1;HPM_P2
2021/11/15 00:00:46;;;;;;;94.35;34.88;;;;;;;;;;5019306;28;20061;-61
2021/11/15 00:03:15;;;;;;;97.63;36.78;;;;;;;;;;5020736;28;20538;-61
2021/11/15 00:05:41;;;;;;;95.38;35.95;;;;;;;;;;5015379;28;20036;-61
2021/11/15 00:08:07;;;;;;;97.35;35.47;;;;;;;;;;5021151;28;20439;-61
2021/11/15 00:10:33;;;;;;;103.65;37.15;;;;;;;;;;5017373;28;20025;-61
2021/11/15 00:12:58;;;;;;;96.50;35.75;;;;;;;;;;5021896;28;20030;-61
2021/11/15 00:15:24;;;;;;;91.70;35.72;;;;;;;;;;5021246;28;20041;-60
2021/11/15 00:17:50;;;;;;;103.85;37.65;;;;;;;;;;5020854;28;20496;-60
2021/11/15 00:20:17;;;;;;;94.32;36.97;;;;;;;;;;5020052;28;20037;-61
2021/11/15 00:22:43;;;;;;;91.28;37.08;;;;;;;;;;5016936;28;20034;-60
2021/11/15 00:25:10;;;;;;;88.03;36.17;;;;;;;;;;5023431;28;20029;-60
2021/11/15 00:27:35;;;;;;;86.15;35.80;;;;;;;;;;5023336;28;20033;-60
2021/11/15 00:30:02;;;;;;;81.07;33.10;;;;;;;;;;5019599;28;20455;-61
2021/11/15 00:32:28;;;;;;;82.35;31.85;;;;;;;;;;5023457;28;20477;-61
2021/11/15 00:34:53;;;;;;;84.22;32.38;;;;;;;;;;5026237;28;20037;-61
2021/11/15 00:37:19;;;;;;;77.20;31.38;;;;;;;;;;5020653;28;20513;-61
2021/11/15 00:39:45;;;;;;;72.10;30.42;;;;;;;;;;5018806;28;20041;-61
2021/11/15 00:42:11;;;;;;;78.72;31.52;;;;;;;;;;5021537;28;20439;-59
2021/11/15 00:44:36;;;;;;;76.60;30.88;;;;;;;;;;5022510;28;20038;-62
2021/11/15 00:47:03;;;;;;;80.05;28.73;;;;;;;;;;5024761;28;20033;-61
2021/11/15 00:49:29;;;;;;;67.60;28.55;;;;;;;;;;5020720;28;20050;-61
2021/11/15 00:51:54;;;;;;;77.93;29.38;;;;;;;;;;5025808;28;20040;-61
2021/11/15 00:54:20;;;;;;;75.43;28.98;;;;;;;;;;5019032;28;20033;-62
2021/11/15 00:56:45;;;;;;;73.35;30.00;;;;;;;;;;5024565;28;20033;-61
2021/11/15 00:59:11;;;;;;;84.13;29.27;;;;;;;;;;5022123;28;20037;-62
2021/11/15 01:01:36;;;;;;;82.95;31.00;;;;;;;;;;5020874;28;20821;-61
2021/11/15 01:04:02;;;;;;;74.30;30.52;;;;;;;;;;5014285;28;20075;-61
2021/11/15 01:06:27;;;;;;;73.15;26.15;;;;;;;;;;5012251;28;20021;-62
2021/11/15 01:08:53;;;;;;;67.78;28.17;;;;;;;;;;5016315;28;20029;-61
2021/11/15 01:11:18;;;;;;;66.80;28.20;;;;;;;;;;5021834;28;20044;-61
2021/11/15 01:13:44;;;;;;;73.28;27.55;;;;;;;;;;5020449;28;20068;-61
2021/11/15 01:16:10;;;;;;;65.28;27.83;;;;;;;;;;5019171;28;20170;-61
2021/11/15 01:18:41;;;;;;;46.45;17.85;;;;;;;;;;5018562;28;20077;-61
2021/11/15 01:21:08;;;;;;;62.30;25.20;;;;;;;;;;5025744;28;20152;-62
2021/11/15 01:23:34;;;;;;;59.90;24.95;;;;;;;;;;5024221;28;20029;-61
2021/11/15 01:25:59;;;;;;;59.35;27.33;;;;;;;;;;5027365;28;20063;-61
2021/11/15 01:28:25;;;;;;;69.50;24.90;;;;;;;;;;5026560;28;20492;-61
2021/11/15 01:30:50;;;;;;;58.88;25.27;;;;;;;;;;5022224;28;20038;-61
2021/11/15 01:33:16;;;;;;;67.35;27.27;;;;;;;;;;5021144;28;20113;-61
2021/11/15 01:35:41;;;;;;;60.17;25.40;;;;;;;;;;5022171;28;20538;-61
2021/11/15 01:38:07;;;;;;;68.22;28.17;;;;;;;;;;5022530;28;20121;-61
2021/11/15 01:40:34;;;;;;;63.67;26.27;;;;;;;;;;5018842;28;20029;-61
2021/11/15 01:43:01;;;;;;;59.42;24.58;;;;;;;;;;5017767;28;20049;-61
2021/11/15 01:45:28;;;;;;;59.47;23.73;;;;;;;;;;5015390;28;20293;-61
2021/11/15 01:47:58;;;;;;;70.10;25.90;;;;;;;;;;5019802;28;20052;-61
2021/11/15 01:50:25;;;;;;;68.95;26.00;;;;;;;;;;5017807;28;20533;-61
2021/11/15 01:52:51;;;;;;;58.50;26.02;;;;;;;;;;5022528;28;20029;-60
2021/11/15 01:55:20;;;;;;;60.40;25.55;;;;;;;;;;5022596;28;20471;-61
2021/11/15 01:57:48;;;;;;;62.00;26.80;;;;;;;;;;5018935;28;20026;-61
2021/11/15 02:00:19;;;;;;;71.28;29.20;;;;;;;;;;5021637;28;20033;-61
2021/11/15 02:02:45;;;;;;;64.85;26.40;;;;;;;;;;5016041;28;20022;-60
2021/11/15 02:05:10;;;;;;;59.80;24.75;;;;;;;;;;5022188;28;20029;-62
2021/11/15 02:07:36;;;;;;;57.97;25.33;;;;;;;;;;5021845;28;20032;-61
2021/11/15 02:10:08;;;;;;;57.10;24.48;;;;;;;;;;5020754;28;20047;-61
2021/11/15 02:12:33;;;;;;;62.92;26.17;;;;;;;;;;5024871;28;20024;-61
2021/11/15 02:14:59;;;;;;;56.35;24.60;;;;;;;;;;5021909;28;20080;-61
2021/11/15 02:17:24;;;;;;;65.43;26.20;;;;;;;;;;5021368;28;20037;-61
2021/11/15 02:19:51;;;;;;;79.05;24.80;;;;;;;;;;5018441;28;20455;-61
2021/11/15 02:22:17;;;;;;;56.70;24.98;;;;;;;;;;5019369;28;20053;-61
2021/11/15 02:24:44;;;;;;;58.95;25.02;;;;;;;;;;5016327;28;20391;-61
2021/11/15 02:27:10;;;;;;;59.35;24.67;;;;;;;;;;5017474;28;20179;-61
2021/11/15 02:29:38;;;;;;;56.47;23.13;;;;;;;;;;5018072;28;20533;-61
2021/11/15 02:32:04;;;;;;;56.60;24.65;;;;;;;;;;5018171;28;20492;-61
2021/11/15 02:34:29;;;;;;;57.50;24.15;;;;;;;;;;5016016;28;20091;-61
2021/11/15 02:36:56;;;;;;;56.53;23.23;;;;;;;;;;5019743;28;20034;-61
2021/11/15 02:39:21;;;;;;;54.38;24.10;;;;;;;;;;5021842;28;20492;-61
2021/11/15 02:41:47;;;;;;;56.67;23.23;;;;;;;;;;5019714;28;20033;-61
2021/11/15 02:44:12;;;;;;;58.58;24.58;;;;;;;;;;5019339;28;20052;-61
2021/11/15 02:46:38;;;;;;;61.28;23.88;;;;;;;;;;5018356;28;20044;-61
2021/11/15 02:49:04;;;;;;;50.88;23.08;;;;;;;;;;5018383;28;20546;-61
2021/11/15 02:51:29;;;;;;;47.55;22.05;;;;;;;;;;5018663;28;20666;-62
2021/11/15 02:53:55;;;;;;;59.90;23.48;;;;;;;;;;5018809;28;20053;-62
2021/11/15 02:56:21;;;;;;;65.20;23.15;;;;;;;;;;5019668;28;20030;-60
2021/11/15 02:58:47;;;;;;;52.42;23.50;;;;;;;;;;5018785;28;20049;-60
2021/11/15 03:01:17;;;;;;;56.50;22.30;;;;;;;;;;5021432;28;20140;-60
2021/11/15 03:03:44;;;;;;;50.28;23.15;;;;;;;;;;5015998;28;20037;-61
2021/11/15 03:06:10;;;;;;;49.72;22.35;;;;;;;;;;5018352;28;20029;-61
2021/11/15 03:08:35;;;;;;;58.13;23.00;;;;;;;;;;5020198;28;20374;-60
2021/11/15 03:11:05;;;;;;;57.60;22.42;;;;;;;;;;5017687;28;20030;-62
2021/11/15 03:13:35;;;;;;;65.30;22.17;;;;;;;;;;5018127;28;20022;-61
2021/11/15 03:16:01;;;;;;;23.40;8.95;;;;;;;;;;5015341;28;20374;-60
2021/11/15 03:18:32;;;;;;;17.02;7.10;;;;;;;;;;5019821;28;20025;-61
2021/11/15 03:21:06;;;;;;;15.27;6.90;;;;;;;;;;5015777;28;20036;-61
2021/11/15 03:23:34;;;;;;;21.38;5.55;;;;;;;;;;5023100;28;20200;-61
2021/11/15 03:26:00;;;;;;;9.55;4.72;;;;;;;;;;5019193;28;20026;-61
2021/11/15 03:28:29;;;;;;;27.42;5.65;;;;;;;;;;5019633;28;20018;-61
2021/11/15 03:30:57;;;;;;;11.52;4.93;;;;;;;;;;5017765;28;20552;-61
2021/11/15 03:33:25;;;;;;;17.52;6.72;;;;;;;;;;5019036;28;20041;-61
2021/11/15 03:35:50;;;;;;;9.25;4.13;;;;;;;;;;5016273;28;20033;-61
2021/11/15 03:38:16;;;;;;;12.50;4.53;;;;;;;;;;5019617;28;20554;-61
2021/11/15 03:40:42;;;;;;;9.32;3.72;;;;;;;;;;5013634;28;20327;-61
2021/11/15 03:43:09;;;;;;;8.95;3.42;;;;;;;;;;5018693;28;20049;-62
2021/11/15 03:45:36;;;;;;;7.40;3.10;;;;;;;;;;5016676;28;20129;-62
2021/11/15 03:48:02;;;;;;;5.43;2.50;;;;;;;;;;5017132;28;20025;-61
2021/11/15 03:50:28;;;;;;;5.72;2.65;;;;;;;;;;5021086;28;20044;-61
2021/11/15 03:52:56;;;;;;;12.18;2.78;;;;;;;;;;5019339;28;20072;-63
2021/11/15 03:55:23;;;;;;;7.15;2.25;;;;;;;;;;5021242;28;20041;-62
2021/11/15 03:57:48;;;;;;;7.82;2.50;;;;;;;;;;5016388;28;20040;-62
2021/11/15 04:00:19;;;;;;;3.92;1.88;;;;;;;;;;5017215;28;20037;-60
2021/11/15 04:02:50;;;;;;;8.70;2.08;;;;;;;;;;5021167;28;20463;-61
2021/11/15 04:05:26;;;;;;;2.95;1.58;;;;;;;;;;5022147;28;20028;-61
2021/11/15 04:07:52;;;;;;;6.40;1.95;;;;;;;;;;5016988;28;20088;-61
2021/11/15 04:10:32;;;;;;;2.90;1.65;;;;;;;;;;5018485;28;20059;-62
2021/11/15 04:12:59;;;;;;;2.95;1.50;;;;;;;;;;5015649;28;20033;-62
2021/11/15 04:15:25;;;;;;;3.08;1.67;;;;;;;;;;5021219;28;20462;-62
2021/11/15 04:17:52;;;;;;;3.45;1.27;;;;;;;;;;5017622;28;20120;-62
2021/11/15 04:20:20;;;;;;;3.00;1.38;;;;;;;;;;5021304;28;20038;-62
2021/11/15 04:22:46;;;;;;;3.58;1.25;;;;;;;;;;5015680;28;20118;-62
2021/11/15 04:25:12;;;;;;;3.72;1.00;;;;;;;;;;5013707;28;20062;-62
2021/11/15 04:27:38;;;;;;;4.13;1.27;;;;;;;;;;5020978;28;20504;-62
2021/11/15 04:30:06;;;;;;;5.45;1.42;;;;;;;;;;5013944;28;20102;-63
2021/11/15 04:32:32;;;;;;;2.83;1.00;;;;;;;;;;5020230;28;20060;-63
2021/11/15 04:34:57;;;;;;;1.30;0.73;;;;;;;;;;5019885;28;20025;-63
2021/11/15 04:37:23;;;;;;;3.13;0.98;;;;;;;;;;5014549;28;20520;-63
2021/11/15 04:39:49;;;;;;;2.05;1.30;;;;;;;;;;5019053;28;20041;-61
2021/11/15 04:42:14;;;;;;;1.85;0.88;;;;;;;;;;5013786;28;20717;-62
2021/11/15 04:44:40;;;;;;;4.35;1.17;;;;;;;;;;5019199;28;20059;-62
2021/11/15 04:47:05;;;;;;;2.63;1.05;;;;;;;;;;5015172;28;20400;-63
2021/11/15 04:49:31;;;;;;;2.10;1.15;;;;;;;;;;5017006;28;20030;-63
2021/11/15 04:51:57;;;;;;;3.67;1.40;;;;;;;;;;5014208;28;20141;-63
2021/11/15 04:54:22;;;;;;;1.38;1.00;;;;;;;;;;5021649;28;20061;-63
2021/11/15 04:56:49;;;;;;;4.05;1.02;;;;;;;;;;5017437;28;20029;-62
2021/11/15 04:59:14;;;;;;;2.80;1.40;;;;;;;;;;5017222;28;20038;-63
2021/11/15 05:01:41;;;;;;;3.55;1.30;;;;;;;;;;5018481;28;20038;-63
2021/11/15 05:04:06;;;;;;;4.55;1.52;;;;;;;;;;5017213;28;20132;-61
2021/11/15 05:06:32;;;;;;;3.13;1.65;;;;;;;;;;5014334;28;20057;-63
2021/11/15 05:08:58;;;;;;;3.95;1.70;;;;;;;;;;5016803;28;20068;-62
2021/11/15 05:11:23;;;;;;;2.40;1.67;;;;;;;;;;5014538;28;20476;-62
2021/11/15 05:13:50;;;;;;;2.67;1.80;;;;;;;;;;5012487;28;20029;-62
2021/11/15 05:16:15;;;;;;;4.47;1.65;;;;;;;;;;5017960;28;20029;-62
2021/11/15 05:18:41;;;;;;;5.40;1.55;;;;;;;;;;5013076;28;20504;-61
2021/11/15 05:21:07;;;;;;;2.58;1.85;;;;;;;;;;5018881;28;20068;-63
2021/11/15 05:23:32;;;;;;;3.42;1.25;;;;;;;;;;5014026;28;20109;-62
2021/11/15 05:25:58;;;;;;;2.75;1.13;;;;;;;;;;5011830;28;20074;-62
2021/11/15 05:28:24;;;;;;;2.63;1.30;;;;;;;;;;5014758;28;20499;-63
2021/11/15 05:30:49;;;;;;;1.20;1.10;;;;;;;;;;5018813;28;20116;-62
2021/11/15 05:33:15;;;;;;;4.45;1.00;;;;;;;;;;5014029;28;20588;-62
2021/11/15 05:35:41;;;;;;;3.15;1.38;;;;;;;;;;5018453;28;20548;-62
2021/11/15 05:38:07;;;;;;;1.90;1.15;;;;;;;;;;5011912;28;20417;-62
2021/11/15 05:40:33;;;;;;;2.08;1.30;;;;;;;;;;5015676;28;20034;-62
2021/11/15 05:42:59;;;;;;;4.70;1.40;;;;;;;;;;5016336;28;20057;-62
2021/11/15 05:45:26;;;;;;;8.20;1.27;;;;;;;;;;5016797;28;20087;-61
2021/11/15 05:47:53;;;;;;;2.95;1.13;;;;;;;;;;5020876;28;20041;-61
2021/11/15 05:50:20;;;;;;;1.90;1.15;;;;;;;;;;5012786;28;20036;-61
2021/11/15 05:52:46;;;;;;;3.00;1.40;;;;;;;;;;5016488;28;20034;-62
2021/11/15 05:55:15;;;;;;;2.40;1.40;;;;;;;;;;5014587;28;20175;-62
2021/11/15 05:57:41;;;;;;;4.82;1.83;;;;;;;;;;5012564;28;20033;-62
2021/11/15 06:00:10;;;;;;;4.65;2.10;;;;;;;;;;5014877;28;20040;-61
2021/11/15 06:02:36;;;;;;;5.80;2.50;;;;;;;;;;5020932;28;20111;-62
2021/11/15 06:05:03;;;;;;;7.53;2.70;;;;;;;;;;5018332;28;20072;-61
2021/11/15 06:07:28;;;;;;;6.75;2.58;;;;;;;;;;5019032;28;20048;-61
2021/11/15 06:09:54;;;;;;;7.50;2.70;;;;;;;;;;5016352;28;20082;-61
2021/11/15 06:12:19;;;;;;;4.53;1.90;;;;;;;;;;5018908;28;20455;-62
2021/11/15 06:14:45;;;;;;;4.00;1.90;;;;;;;;;;5019850;28;20068;-62
2021/11/15 06:17:10;;;;;;;4.53;1.40;;;;;;;;;;5015926;28;20036;-61
2021/11/15 06:19:36;;;;;;;7.80;2.00;;;;;;;;;;5017184;28;20068;-62
2021/11/15 06:22:02;;;;;;;6.25;2.00;;;;;;;;;;5023132;28;20033;-62
2021/11/15 06:24:28;;;;;;;6.10;2.17;;;;;;;;;;5022350;28;20132;-62
2021/11/15 06:26:53;;;;;;;4.05;1.52;;;;;;;;;;5024505;28;20065;-61
2021/11/15 06:29:19;;;;;;;2.92;1.55;;;;;;;;;;5019002;28;20045;-60
2021/11/15 06:31:45;;;;;;;1.98;0.93;;;;;;;;;;5022240;28;20053;-61
2021/11/15 06:34:10;;;;;;;10.75;1.08;;;;;;;;;;5019581;28;20032;-61
2021/11/15 06:36:36;;;;;;;2.33;1.15;;;;;;;;;;5015878;28;20037;-62
2021/11/15 06:39:02;;;;;;;3.47;1.17;;;;;;;;;;5017603;28;20033;-63
2021/11/15 06:41:28;;;;;;;5.20;0.90;;;;;;;;;;5017803;28;20410;-62
2021/11/15 06:43:53;;;;;;;3.20;0.95;;;;;;;;;;5019933;28;20122;-61
2021/11/15 06:46:19;;;;;;;2.53;0.90;;;;;;;;;;5017576;28;20128;-62
2021/11/15 06:48:45;;;;;;;2.88;0.90;;;;;;;;;;5018862;28;20029;-61
2021/11/15 06:51:13;;;;;;;2.50;0.90;;;;;;;;;;5020858;28;20044;-62
2021/11/15 06:53:42;;;;;;;4.28;1.17;;;;;;;;;;5021416;28;20040;-61
2021/11/15 06:56:08;;;;;;;5.25;1.10;;;;;;;;;;5021955;28;20067;-62
2021/11/15 06:58:34;;;;;;;3.40;1.00;;;;;;;;;;5016736;28;20529;-62
2021/11/15 07:01:00;;;;;;;5.90;1.08;;;;;;;;;;5020230;28;20076;-62
2021/11/15 07:03:26;;;;;;;2.88;1.20;;;;;;;;;;5014374;28;20536;-62
2021/11/15 07:05:51;;;;;;;3.80;1.10;;;;;;;;;;5016382;28;20137;-62
2021/11/15 07:08:17;;;;;;;4.10;1.58;;;;;;;;;;5013105;28;20029;-62
2021/11/15 07:10:43;;;;;;;6.53;2.00;;;;;;;;;;5012341;28;20527;-62
2021/11/15 07:13:09;;;;;;;4.43;1.27;;;;;;;;;;5001264;28;20038;-62
2021/11/15 07:15:35;;;;;;;6.82;1.90;;;;;;;;;;5018169;28;20063;-61
2021/11/15 07:18:00;;;;;;;5.50;1.40;;;;;;;;;;5012777;28;20484;-62
2021/11/15 07:20:26;;;;;;;4.78;1.38;;;;;;;;;;5018047;28;20037;-62
2021/11/15 07:22:52;;;;;;;7.03;1.65;;;;;;;;;;5013121;28;20094;-62
2021/11/15 07:25:19;;;;;;;4.50;1.92;;;;;;;;;;5016680;28;20090;-61
2021/11/15 07:27:50;;;;;;;3.75;1.67;;;;;;;;;;5021335;28;20497;-61
2021/11/15 07:30:16;;;;;;;7.50;2.00;;;;;;;;;;5012684;28;20033;-62
2021/11/15 07:32:41;;;;;;;7.88;1.85;;;;;;;;;;5014013;28;20044;-62
2021/11/15 07:35:09;;;;;;;6.30;2.20;;;;;;;;;;5011379;28;20041;-62
2021/11/15 07:37:35;;;;;;;6.95;2.33;;;;;;;;;;5016914;28;20033;-62
2021/11/15 07:40:06;;;;;;;5.88;2.83;;;;;;;;;;5016931;28;20393;-62
2021/11/15 07:42:32;;;;;;;8.10;3.42;;;;;;;;;;5014425;28;20076;-62
2021/11/15 07:44:57;;;;;;;6.60;2.90;;;;;;;;;;5012626;28;20080;-62
2021/11/15 07:47:23;;;;;;;8.90;3.55;;;;;;;;;;5018815;28;20174;-62
2021/11/15 07:49:49;;;;;;;10.50;3.50;;;;;;;;;;4998649;28;20071;-62
2021/11/15 07:52:17;;;;;;;12.18;3.50;;;;;;;;;;5019406;28;20472;-63
2021/11/15 07:54:44;;;;;;;9.27;3.38;;;;;;;;;;5018108;28;20065;-62
2021/11/15 07:57:10;;;;;;;9.05;3.35;;;;;;;;;;5017248;28;20032;-62
2021/11/15 07:59:37;;;;;;;8.93;2.88;;;;;;;;;;5012939;28;20406;-62
2021/11/15 08:02:04;;;;;;;9.75;3.08;;;;;;;;;;5021307;28;20542;-62
2021/11/15 08:04:29;;;;;;;7.60;3.38;;;;;;;;;;5022886;28;20404;-62
2021/11/15 08:06:55;;;;;;;8.13;3.42;;;;;;;;;;5022966;28;20026;-62
2021/11/15 08:09:21;;;;;;;11.93;3.40;;;;;;;;;;5018122;28;20026;-62
2021/11/15 08:11:50;;;;;;;8.88;3.88;;;;;;;;;;5020031;28;20033;-62
2021/11/15 08:14:16;;;;;;;19.45;4.85;;;;;;;;;;5020212;28;20047;-62
2021/11/15 08:16:42;;;;;;;8.65;3.80;;;;;;;;;;5016191;28;20030;-62
2021/11/15 08:19:08;;;;;;;11.00;3.58;;;;;;;;;;5017763;28;20029;-62
2021/11/15 08:21:35;;;;;;;9.98;3.25;;;;;;;;;;5020773;28;20030;-62
2021/11/15 08:24:45;;;;;;;11.95;3.47;;;;;;;;;;5019304;28;20108;-62
2021/11/15 08:27:10;;;;;;;10.95;3.25;;;;;;;;;;5012247;28;20033;-61
2021/11/15 08:29:37;;;;;;;11.73;3.63;;;;;;;;;;5018310;28;20506;-60
2021/11/15 08:32:07;;;;;;;21.00;6.43;;;;;;;;;;5016257;28;20405;-61
2021/11/15 08:34:33;;;;;;;14.55;3.70;;;;;;;;;;5021179;28;20515;-62
2021/11/15 08:36:59;;;;;;;10.45;3.63;;;;;;;;;;5024068;28;20026;-60
2021/11/15 08:39:27;;;;;;;15.52;4.38;;;;;;;;;;5021096;28;20029;-60
2021/11/15 08:41:59;;;;;;;14.13;3.63;;;;;;;;;;5010503;28;20037;-60
2021/11/15 08:44:28;;;;;;;16.00;3.90;;;;;;;;;;5008587;28;20072;-60
2021/11/15 08:46:55;;;;;;;15.35;4.38;;;;;;;;;;5009749;28;20038;-60
2021/11/15 08:49:23;;;;;;;15.00;3.88;;;;;;;;;;5011274;28;20032;-60
2021/11/15 08:51:49;;;;;;;16.13;4.38;;;;;;;;;;5017918;28;20025;-60
2021/11/15 08:54:18;;;;;;;21.85;4.72;;;;;;;;;;5016137;28;20013;-60
2021/11/15 08:56:54;;;;;;;16.10;4.68;;;;;;;;;;5013797;28;20500;-60
2021/11/15 08:59:19;;;;;;;16.45;4.45;;;;;;;;;;5021141;28;20508;-59
2021/11/15 09:01:45;;;;;;;14.07;4.43;;;;;;;;;;5012769;28;20036;-59
2021/11/15 09:04:12;;;;;;;17.92;5.63;;;;;;;;;;5015819;28;20044;-59
2021/11/15 09:06:38;;;;;;;24.23;5.07;;;;;;;;;;5017088;28;20095;-60
2021/11/15 09:09:07;;;;;;;24.77;5.82;;;;;;;;;;5021139;28;20520;-59
2021/11/15 09:11:33;;;;;;;17.88;4.85;;;;;;;;;;5018208;28;20172;-59
2021/11/15 09:13:59;;;;;;;20.40;5.32;;;;;;;;;;5019878;28;20038;-60
2021/11/15 09:16:25;;;;;;;28.38;5.53;;;;;;;;;;5010540;28;20497;-59
2021/11/15 09:18:51;;;;;;;20.33;5.20;;;;;;;;;;5016897;28;20473;-59
2021/11/15 09:21:17;;;;;;;15.48;5.47;;;;;;;;;;5017080;28;20397;-59
2021/11/15 09:23:46;;;;;;;20.88;4.88;;;;;;;;;;5019512;28;20033;-59
2021/11/15 09:26:14;;;;;;;15.45;3.88;;;;;;;;;;5021090;28;20060;-59
2021/11/15 09:28:41;;;;;;;18.92;4.32;;;;;;;;;;5014464;28;20313;-59
2021/11/15 09:31:07;;;;;;;20.85;5.65;;;;;;;;;;5011316;28;20025;-59
2021/11/15 09:33:33;;;;;;;20.05;3.38;;;;;;;;;;5012301;28;20089;-59
2021/11/15 09:35:59;;;;;;;14.70;3.40;;;;;;;;;;5014396;28;20052;-59
2021/11/15 09:38:26;;;;;;;14.20;3.33;;;;;;;;;;5014049;28;20033;-59
2021/11/15 09:40:59;;;;;;;11.55;3.65;;;;;;;;;;5013427;28;20437;-59
2021/11/15 09:43:36;;;;;;;13.55;3.33;;;;;;;;;;5018256;28;20052;-59
2021/11/15 09:46:07;;;;;;;11.98;3.92;;;;;;;;;;5028731;28;20026;-59
2021/11/15 09:48:34;;;;;;;10.65;3.47;;;;;;;;;;5023688;28;20041;-59
2021/11/15 09:51:02;;;;;;;20.70;5.00;;;;;;;;;;5015652;28;20034;-59
2021/11/15 09:53:27;;;;;;;12.27;3.55;;;;;;;;;;5021271;28;20030;-58
2021/11/15 09:55:54;;;;;;;11.68;3.28;;;;;;;;;;5021235;28;20373;-59
2021/11/15 09:58:20;;;;;;;13.63;3.67;;;;;;;;;;5020834;28;20161;-59
2021/11/15 10:00:46;;;;;;;16.50;4.63;;;;;;;;;;5025869;28;20527;-59
2021/11/15 10:03:11;;;;;;;11.50;3.75;;;;;;;;;;5027067;28;20037;-58
2021/11/15 10:05:37;;;;;;;11.07;3.80;;;;;;;;;;5028462;28;20508;-59
2021/11/15 10:08:10;;;;;;;10.98;3.40;;;;;;;;;;5018440;28;20124;-59
2021/11/15 10:10:56;;;;;;;15.48;3.33;;;;;;;;;;5022591;28;20602;-59
2021/11/15 10:13:30;;;;;;;12.55;3.53;;;;;;;;;;5024754;28;20033;-58
2021/11/15 10:16:12;;;;;;;10.48;2.97;;;;;;;;;;5019046;28;20500;-59
2021/11/15 10:18:42;;;;;;;12.85;3.53;;;;;;;;;;5016913;28;20037;-60
2021/11/15 10:21:32;;;;;;;16.35;3.50;;;;;;;;;;5019493;28;20527;-60
2021/11/15 10:24:06;;;;;;;21.63;4.18;;;;;;;;;;5023841;28;20057;-60
2021/11/15 10:26:40;;;;;;;14.23;3.72;;;;;;;;;;5017155;28;20029;-60
2021/11/15 10:29:15;;;;;;;16.25;4.00;;;;;;;;;;5017900;28;20033;-59
2021/11/15 10:31:53;;;;;;;9.23;3.08;;;;;;;;;;5019041;28;20033;-59
2021/11/15 10:34:32;;;;;;;13.15;3.45;;;;;;;;;;5020932;28;20057;-60
2021/11/15 10:37:04;;;;;;;16.98;3.45;;;;;;;;;;5023828;28;20033;-59
2021/11/15 10:39:52;;;;;;;8.50;3.05;;;;;;;;;;5019438;28;20112;-60
2021/11/15 10:42:26;;;;;;;8.20;2.63;;;;;;;;;;5018723;28;20511;-60
2021/11/15 10:45:12;;;;;;;13.07;3.70;;;;;;;;;;5019639;28;20042;-59
2021/11/15 10:47:43;;;;;;;10.55;3.40;;;;;;;;;;5017999;28;20622;-59
2021/11/15 10:50:22;;;;;;;8.68;2.42;;;;;;;;;;5021385;28;20040;-60
2021/11/15 10:53:05;;;;;;;14.07;2.67;;;;;;;;;;5020933;28;20031;-59
2021/11/15 10:55:48;;;;;;;9.10;2.55;;;;;;;;;;5012094;28;20060;-60
2021/11/15 10:58:17;;;;;;;;;;;;;;;;;;5014308;28;20033;-59
2021/11/15 11:00:51;;;;;;;12.85;3.15;;;;;;;;;;5020588;28;19919;-60
2021/11/15 11:03:20;;;;;;;11.20;3.28;;;;;;;;;;5016058;28;20057;-60
2021/11/15 11:05:49;;;;;;;10.48;2.53;;;;;;;;;;5018401;28;20038;-59
2021/11/15 11:08:16;;;;;;;13.82;3.63;;;;;;;;;;5019504;28;20033;-60
2021/11/15 11:11:06;;;;;;;9.10;2.67;;;;;;;;;;5016211;28;20033;-59
2021/11/15 11:14:01;;;;;;;12.55;3.63;;;;;;;;;;5015333;28;20029;-59
2021/11/15 11:16:41;;;;;;;19.90;3.55;;;;;;;;;;5020331;28;20551;-59
2021/11/15 11:24:41;;;;;;;13.95;2.10;;;;;;;;;;5010827;28;20098;-59
2021/11/15 11:27:10;;;;;;;27.63;3.00;;;;;;;;;;5023562;28;20080;-59
2021/11/15 11:29:40;;;;;;;13.90;2.40;;;;;;;;;;5023259;28;20104;-59
2021/11/15 11:32:11;;;;;;;13.38;2.42;;;;;;;;;;5020282;28;20039;-58
2021/11/15 11:34:38;;;;;;;8.43;2.42;;;;;;;;;;5015296;28;20152;-59
2021/11/15 11:37:06;;;;;;;13.68;1.88;;;;;;;;;;5016583;28;20041;-59
2021/11/15 11:39:34;;;;;;;9.77;2.05;;;;;;;;;;5020966;28;20022;-59
2021/11/15 11:42:00;;;;;;;12.43;1.90;;;;;;;;;;5015048;28;20412;-59
2021/11/15 11:44:28;;;;;;;17.75;1.88;;;;;;;;;;5017898;28;20057;-58
2021/11/15 11:46:55;;;;;;;18.23;1.98;;;;;;;;;;5014382;28;20029;-59
2021/11/15 11:49:25;;;;;;;17.38;1.95;;;;;;;;;;5013378;28;20064;-59
2021/11/15 11:51:59;;;;;;;8.82;2.25;;;;;;;;;;5014382;28;20186;-58
2021/11/15 11:54:31;;;;;;;14.02;2.85;;;;;;;;;;5014799;28;20388;-58
2021/11/15 11:57:10;;;;;;;12.65;2.40;;;;;;;;;;5020162;28;20079;-58
2021/11/15 11:59:41;;;;;;;13.50;2.50;;;;;;;;;;5016549;28;20025;-58
2021/11/15 12:02:10;;;;;;;11.13;2.13;;;;;;;;;;5018537;28;20036;-59
2021/11/15 12:04:59;;;;;;;10.93;1.45;;;;;;;;;;5015260;28;20034;-58
2021/11/15 12:07:38;;;;;;;9.77;1.50;;;;;;;;;;5014575;28;20025;-58
2021/11/15 12:10:10;;;;;;;14.98;2.00;;;;;;;;;;5012723;28;20033;-59
2021/11/15 12:12:55;;;;;;;;;;;;;;;;;;5015832;28;20537;-57
2021/11/15 12:15:56;;;;;;;16.27;2.03;;;;;;;;;;5023351;28;19917;-58
2021/11/15 12:18:23;;;;;;;15.00;1.75;;;;;;;;;;5018815;28;20030;-58
2021/11/15 12:21:04;;;;;;;11.68;2.90;;;;;;;;;;5013823;28;20313;-59
2021/11/15 12:23:36;;;;;;;14.40;2.97;;;;;;;;;;5016073;28;20026;-59
2021/11/15 12:26:06;;;;;;;9.90;1.83;;;;;;;;;;5017280;28;20087;-59
2021/11/15 12:28:32;;;;;;;12.77;2.35;;;;;;;;;;5014173;28;20497;-58
2021/11/15 12:30:58;;;;;;;18.00;2.20;;;;;;;;;;5018438;28;20459;-58
2021/11/15 12:33:36;;;;;;;18.42;2.83;;;;;;;;;;5024578;28;20444;-59
2021/11/15 12:36:04;;;;;;;9.27;1.80;;;;;;;;;;5015616;28;20029;-58
2021/11/15 12:38:47;;;;;;;10.88;1.55;;;;;;;;;;5017397;28;20402;-59
2021/11/15 12:41:19;;;;;;;13.20;1.60;;;;;;;;;;5015584;28;20037;-58
2021/11/15 12:44:00;;;;;;;18.80;1.90;;;;;;;;;;5027083;28;20046;-57
2021/11/15 12:46:59;;;;;;;20.80;2.80;;;;;;;;;;5017322;28;20065;-58
2021/11/15 12:49:44;;;;;;;8.95;2.42;;;;;;;;;;5015868;28;20056;-58
2021/11/15 12:52:10;;;;;;;11.30;1.73;;;;;;;;;;5023138;28;20519;-58
2021/11/15 12:54:45;;;;;;;10.75;1.90;;;;;;;;;;5018853;28;20389;-58
2021/11/15 12:57:16;;;;;;;9.35;2.10;;;;;;;;;;5015214;28;20026;-58
2021/11/15 12:59:50;;;;;;;11.70;1.70;;;;;;;;;;5016695;28;20033;-58
2021/11/15 13:02:16;;;;;;;14.00;1.73;;;;;;;;;;5019973;28;20611;-59
2021/11/15 13:04:42;;;;;;;9.50;2.05;;;;;;;;;;5021110;28;20487;-59
2021/11/15 13:07:15;;;;;;;12.65;2.20;;;;;;;;;;5027142;28;20033;-59
2021/11/15 13:09:48;;;;;;;16.80;2.53;;;;;;;;;;5014439;28;20045;-59
2021/11/15 13:12:13;;;;;;;14.48;2.50;;;;;;;;;;5019589;28;20299;-59
2021/11/15 13:14:40;;;;;;;16.88;3.65;;;;;;;;;;5015590;28;20413;-58
2021/11/15 13:17:08;;;;;;;12.90;3.65;;;;;;;;;;5020984;28;20031;-59
2021/11/15 13:19:33;;;;;;;16.35;3.40;;;;;;;;;;5018163;28;20038;-58
2021/11/15 13:21:59;;;;;;;15.20;2.75;;;;;;;;;;5020321;28;20397;-60
2021/11/15 13:24:24;;;;;;;20.42;2.45;;;;;;;;;;5027572;28;20378;-60
2021/11/15 13:26:52;;;;;;;12.45;2.60;;;;;;;;;;5019057;28;20029;-60
2021/11/15 13:29:19;;;;;;;13.20;2.50;;;;;;;;;;5013734;28;20025;-60
2021/11/15 13:31:47;;;;;;;17.17;2.20;;;;;;;;;;5018386;28;20091;-60
2021/11/15 13:34:13;;;;;;;15.82;2.72;;;;;;;;;;5019848;28;20148;-59
2021/11/15 13:36:38;;;;;;;15.13;2.60;;;;;;;;;;5020995;28;20033;-59
2021/11/15 13:39:05;;;;;;;22.83;2.65;;;;;;;;;;5018894;28;20389;-59
2021/11/15 13:41:31;;;;;;;15.63;2.88;;;;;;;;;;5023286;28;20033;-58
2021/11/15 13:43:57;;;;;;;20.33;4.45;;;;;;;;;;5023449;28;20050;-58
2021/11/15 13:46:24;;;;;;;14.65;3.40;;;;;;;;;;5015011;28;20060;-58
2021/11/15 13:48:49;;;;;;;14.90;2.90;;;;;;;;;;5023139;28;20039;-58
2021/11/15 13:51:15;;;;;;;20.13;2.90;;;;;;;;;;5017864;28;20037;-59
2021/11/15 13:53:41;;;;;;;11.45;2.05;;;;;;;;;;5017791;28;20017;-59
2021/11/15 13:56:07;;;;;;;8.50;1.95;;;;;;;;;;5023416;28;20124;-59
2021/11/15 13:58:35;;;;;;;12.73;2.05;;;;;;;;;;5023165;28;20093;-58
2021/11/15 14:01:02;;;;;;;16.00;2.10;;;;;;;;;;5021978;28;20032;-59
2021/11/15 14:03:28;;;;;;;16.27;1.85;;;;;;;;;;5020762;28;20034;-59
2021/11/15 14:05:54;;;;;;;13.80;1.80;;;;;;;;;;5016820;28;20033;-59
2021/11/15 14:08:20;;;;;;;13.02;2.17;;;;;;;;;;5019562;28;20025;-59
2021/11/15 14:10:45;;;;;;;7.13;1.05;;;;;;;;;;5021135;28;20567;-60
2021/11/15 14:13:11;;;;;;;7.85;1.42;;;;;;;;;;5020076;28;20030;-59
2021/11/15 14:15:37;;;;;;;8.90;1.73;;;;;;;;;;5017121;28;20026;-58
2021/11/15 14:18:03;;;;;;;12.07;2.30;;;;;;;;;;5021617;28;20037;-58
2021/11/15 14:20:29;;;;;;;8.57;1.75;;;;;;;;;;5018851;28;20512;-58
2021/11/15 14:22:56;;;;;;;10.43;1.85;;;;;;;;;;5015579;28;20033;-58
2021/11/15 14:25:22;;;;;;;13.88;2.58;;;;;;;;;;5013508;28;20088;-58
2021/11/15 14:27:48;;;;;;;7.90;2.10;;;;;;;;;;5018432;28;20516;-58
2021/11/15 14:30:14;;;;;;;8.05;1.50;;;;;;;;;;5012078;28;20044;-59
2021/11/15 14:32:39;;;;;;;6.00;0.95;;;;;;;;;;5024883;28;20033;-59
2021/11/15 14:35:06;;;;;;;12.57;1.42;;;;;;;;;;5022480;28;20029;-59
2021/11/15 14:37:32;;;;;;;8.10;1.00;;;;;;;;;;5020124;28;20025;-59
2021/11/15 14:39:58;;;;;;;9.68;1.50;;;;;;;;;;5022196;28;20649;-59
2021/11/15 14:42:23;;;;;;;13.45;1.45;;;;;;;;;;5021851;28;20598;-59
2021/11/15 14:44:49;;;;;;;6.07;1.15;;;;;;;;;;5020295;28;20252;-59